createdAt,value
2022-09-15T00:01:41.850Z,69.53
2022-09-15T00:04:10.831Z,69.56
2022-09-15T00:06:39.248Z,69.81
2022-09-15T00:09:08.074Z,69.61
2022-09-15T00:11:37.336Z,68.97
2022-09-15T00:14:08.036Z,68.01
2022-09-15T00:16:37.480Z,68.92
2022-09-15T00:19:06.863Z,69.86
2022-09-15T00:21:40.526Z,68.20
2022-09-15T00:24:10.252Z,68.56
2022-09-15T00:26:38.927Z,68.58
2022-09-15T00:29:07.914Z,67.62
2022-09-15T00:31:36.729Z,68.40
2022-09-15T00:34:06.398Z,68.98
2022-09-15T00:36:34.983Z,69.03
2022-09-15T00:39:04.402Z,68.76
2022-09-15T00:41:32.869Z,68.31
2022-09-15T00:44:36.404Z,68.35
2022-09-15T00:47:19.383Z,69.69
2022-09-15T00:49:59.047Z,70.05
2022-09-15T00:52:55.106Z,70.32
2022-09-15T00:55:34.595Z,70.03
2022-09-15T00:58:07.412Z,69.96
2022-09-15T01:00:36.938Z,70.04
2022-09-15T01:03:05.770Z,70.28
2022-09-15T01:05:47.309Z,69.49
2022-09-15T01:08:33.173Z,69.69
2022-09-15T01:11:02.827Z,69.41
2022-09-15T01:13:31.208Z,69.28
2022-09-15T01:16:30.095Z,68.81
2022-09-15T01:19:48.782Z,69.17
2022-09-15T01:22:57.976Z,69.92
2022-09-15T01:25:45.206Z,70.39
2022-09-15T01:28:35.034Z,71.89
2022-09-15T01:31:08.534Z,72.92
2022-09-15T01:34:03.277Z,71.04
2022-09-15T01:36:48.667Z,70.48
2022-09-15T01:39:23.947Z,71.11
2022-09-15T01:42:01.158Z,71.25
2022-09-15T01:44:55.167Z,71.76
2022-09-15T01:47:27.661Z,71.62
2022-09-15T01:50:11.860Z,70.97
2022-09-15T01:52:46.405Z,71.75
2022-09-15T01:55:27.949Z,71.99
2022-09-15T01:57:58.211Z,72.21
2022-09-15T02:00:26.578Z,71.88
2022-09-15T02:03:05.678Z,71.93
2022-09-15T02:05:51.296Z,70.50
2022-09-15T02:08:40.328Z,70.17
2022-09-15T02:11:14.023Z,70.62
2022-09-15T02:13:48.871Z,69.92
2022-09-15T02:16:25.622Z,69.03
2022-09-15T02:19:20.431Z,69.02
2022-09-15T02:22:23.482Z,68.54
2022-09-15T02:25:18.557Z,68.20
2022-09-15T02:27:53.034Z,68.18
2022-09-15T02:30:22.433Z,68.14
2022-09-15T02:33:00.082Z,68.49
2022-09-15T02:35:31.601Z,68.52
2022-09-15T02:38:01.554Z,67.99
2022-09-15T02:40:32.490Z,67.81
2022-09-15T02:43:03.331Z,67.81
2022-09-15T02:45:32.770Z,67.98
2022-09-15T02:48:01.352Z,68.41
2022-09-15T02:50:30.390Z,68.50
2022-09-15T02:52:58.848Z,68.52
2022-09-15T02:55:30.086Z,68.90
2022-09-15T02:57:59.641Z,68.13
2022-09-15T03:00:28.995Z,67.99
2022-09-15T03:02:58.531Z,68.97
2022-09-15T03:05:30.191Z,68.32
2022-09-15T03:07:58.748Z,68.00
2022-09-15T03:10:27.167Z,67.83
2022-09-15T03:12:55.866Z,68.03
2022-09-15T03:15:26.615Z,68.06
2022-09-15T03:17:55.243Z,68.24
2022-09-15T03:20:28.838Z,68.12
2022-09-15T03:22:57.315Z,67.95
2022-09-15T03:25:27.115Z,67.73
2022-09-15T03:27:55.476Z,67.94
2022-09-15T03:30:24.297Z,68.35
2022-09-15T03:32:52.687Z,68.69
2022-09-15T03:35:20.929Z,69.12
2022-09-15T03:37:49.298Z,68.70
2022-09-15T03:40:18.111Z,69.04
2022-09-15T03:42:46.560Z,70.29
2022-09-15T03:45:15.146Z,71.04
2022-09-15T03:47:43.620Z,71.44
2022-09-15T03:50:12.115Z,71.07
2022-09-15T03:52:40.443Z,69.09
2022-09-15T03:55:09.456Z,68.83
2022-09-15T03:57:37.866Z,68.23
2022-09-15T04:00:08.669Z,67.92
2022-09-15T04:02:37.797Z,67.56
2022-09-15T04:05:07.448Z,67.57
2022-09-15T04:07:36.803Z,67.25
2022-09-15T04:10:06.125Z,66.88
2022-09-15T04:12:35.374Z,66.78
2022-09-15T04:15:04.625Z,66.50
2022-09-15T04:17:33.486Z,66.73
2022-09-15T04:20:02.206Z,66.48
2022-09-15T04:22:34.500Z,66.26
2022-09-15T04:25:02.867Z,66.12
2022-09-15T04:27:34.513Z,65.95
2022-09-15T04:30:03.009Z,65.79
2022-09-15T04:32:31.849Z,66.82
2022-09-15T04:35:00.392Z,65.62
2022-09-15T04:37:28.754Z,65.19
2022-09-15T04:39:57.660Z,65.23
2022-09-15T04:42:26.211Z,64.94
2022-09-15T04:44:54.567Z,65.78
2022-09-15T04:47:22.945Z,65.84
2022-09-15T04:49:51.272Z,65.45
2022-09-15T04:52:20.176Z,65.54
2022-09-15T04:54:48.516Z,65.98
2022-09-15T04:57:16.969Z,65.21
2022-09-15T04:59:45.337Z,64.93
2022-09-15T05:02:13.833Z,64.73
2022-09-15T05:04:42.326Z,64.96
2022-09-15T05:07:10.939Z,65.88
2022-09-15T05:09:39.425Z,66.16
2022-09-15T05:12:08.129Z,65.57
2022-09-15T05:14:36.467Z,66.58
2022-09-15T05:17:04.917Z,66.97
2022-09-15T05:19:33.241Z,65.67
2022-09-15T05:22:01.603Z,65.01
2022-09-15T05:24:29.897Z,64.22
2022-09-15T05:26:58.205Z,63.40
2022-09-15T05:29:26.618Z,62.91
2022-09-15T05:31:55.116Z,62.86
2022-09-15T05:34:23.441Z,61.85
2022-09-15T05:36:51.757Z,60.82
2022-09-15T05:39:20.105Z,60.49
2022-09-15T05:41:48.542Z,59.68
2022-09-15T05:44:17.230Z,59.93
2022-09-15T05:46:45.598Z,59.30
2022-09-15T05:49:14.071Z,59.40
2022-09-15T05:51:42.356Z,59.11
2022-09-15T05:54:10.801Z,58.94
2022-09-15T05:56:39.112Z,59.20
2022-09-15T05:59:07.513Z,59.15
2022-09-15T06:01:35.974Z,59.07
2022-09-15T06:04:04.421Z,57.92
2022-09-15T06:06:33.392Z,58.28
2022-09-15T06:09:05.587Z,58.06
2022-09-15T06:11:34.137Z,58.07
2022-09-15T06:14:04.072Z,58.53
2022-09-15T06:16:35.382Z,57.74
2022-09-15T06:19:04.286Z,56.09
2022-09-15T06:21:33.853Z,56.57
2022-09-15T06:24:06.195Z,55.27
2022-09-15T06:26:35.023Z,55.04
2022-09-15T06:29:05.675Z,55.92
2022-09-15T06:31:35.918Z,56.11
2022-09-15T06:34:05.603Z,55.84
2022-09-15T06:36:34.167Z,56.07
2022-09-15T06:39:03.258Z,54.97
2022-09-15T06:41:47.455Z,54.60
2022-09-15T06:44:20.764Z,55.31
2022-09-15T06:46:49.517Z,55.12
2022-09-15T06:49:19.334Z,54.40
2022-09-15T06:51:48.939Z,54.41
2022-09-15T06:54:17.691Z,54.80
2022-09-15T06:56:47.295Z,54.66
2022-09-15T06:59:17.601Z,54.75
2022-09-15T07:01:55.167Z,54.81
2022-09-15T07:04:23.733Z,55.17
2022-09-15T07:06:52.133Z,55.76
2022-09-15T07:09:20.447Z,55.58
2022-09-15T07:11:49.043Z,55.16
2022-09-15T07:14:17.424Z,55.60
2022-09-15T07:16:45.920Z,56.19
2022-09-15T07:19:14.550Z,56.44
2022-09-15T07:21:42.952Z,56.90
2022-09-15T07:24:11.270Z,57.15
2022-09-15T07:26:39.585Z,57.57
2022-09-15T07:29:08.014Z,57.25
2022-09-15T07:31:39.174Z,59.36
2022-09-15T07:34:08.084Z,58.08
2022-09-15T07:36:36.732Z,58.82
2022-09-15T07:39:05.912Z,59.11
2022-09-15T07:41:35.456Z,59.61
2022-09-15T07:44:07.007Z,60.04
2022-09-15T07:46:35.396Z,59.70
2022-09-15T07:49:04.785Z,59.33
2022-09-15T07:51:33.100Z,59.30
2022-09-15T07:54:01.897Z,59.89
2022-09-15T07:56:30.337Z,59.98
2022-09-15T07:58:59.004Z,59.58
2022-09-15T08:01:27.548Z,60.13
2022-09-15T08:03:56.237Z,59.80
2022-09-15T08:06:26.871Z,58.96
2022-09-15T08:09:00.457Z,58.56
2022-09-15T08:11:30.135Z,58.49
2022-09-15T08:14:03.185Z,58.61
2022-09-15T08:16:31.747Z,58.37
2022-09-15T08:19:00.853Z,58.37
2022-09-15T08:21:29.679Z,58.46
2022-09-15T08:24:01.423Z,58.34
2022-09-15T08:26:30.038Z,58.29
2022-09-15T08:28:58.608Z,58.99
2022-09-15T08:31:27.047Z,58.72
2022-09-15T08:33:56.848Z,58.67
2022-09-15T08:36:28.172Z,58.46
2022-09-15T08:38:56.972Z,58.22
2022-09-15T08:41:33.940Z,58.93
2022-09-15T08:44:34.312Z,58.65
2022-09-15T08:47:05.596Z,58.84
2022-09-15T08:49:55.315Z,59.07
2022-09-15T08:52:40.681Z,59.24
2022-09-15T08:55:52.605Z,59.66
2022-09-15T08:58:29.817Z,59.22
2022-09-15T09:01:35.674Z,59.16
2022-09-15T09:04:37.454Z,59.31
2022-09-15T09:07:26.145Z,59.78
2022-09-15T09:10:00.224Z,60.11
2022-09-15T09:12:58.968Z,60.95
2022-09-15T09:15:38.458Z,64.29
2022-09-15T09:18:34.261Z,65.92
2022-09-15T09:21:26.889Z,66.70
2022-09-15T09:24:24.671Z,66.25
2022-09-15T09:26:55.973Z,67.57
2022-09-15T09:29:49.991Z,68.52
2022-09-15T09:32:26.115Z,71.34
2022-09-15T09:35:05.338Z,71.90
2022-09-15T09:37:34.052Z,73.40
2022-09-15T09:40:02.763Z,72.26
2022-09-15T09:42:37.455Z,72.73
2022-09-15T09:45:07.758Z,73.92
2022-09-15T09:47:37.279Z,73.70
2022-09-15T09:50:39.114Z,71.27
2022-09-15T09:53:32.279Z,68.32
2022-09-15T09:56:13.229Z,68.43
2022-09-15T09:58:41.906Z,68.34
2022-09-15T10:01:19.849Z,69.60
2022-09-15T10:03:48.382Z,67.27
2022-09-15T10:06:22.418Z,66.91
2022-09-15T10:09:06.216Z,67.26
2022-09-15T10:12:00.894Z,68.49
2022-09-15T10:14:40.722Z,68.20
2022-09-15T10:17:15.969Z,66.70
2022-09-15T10:19:54.793Z,64.54
2022-09-15T10:22:37.834Z,63.31
2022-09-15T10:28:27.844Z,58.24
2022-09-15T10:31:13.945Z,57.04
2022-09-15T10:33:47.830Z,55.09
2022-09-15T10:36:31.165Z,53.91
2022-09-15T10:39:25.266Z,52.97
2022-09-15T10:42:08.890Z,53.36
2022-09-15T10:44:56.474Z,52.07
2022-09-15T10:47:56.220Z,51.25
2022-09-15T10:50:38.998Z,51.38
2022-09-15T10:53:29.349Z,51.64
2022-09-15T10:56:13.861Z,50.49
2022-09-15T10:59:11.086Z,49.20
2022-09-15T11:01:59.320Z,48.71
2022-09-15T11:04:54.802Z,49.06
2022-09-15T11:07:54.381Z,49.37
2022-09-15T11:10:51.079Z,49.09
2022-09-15T11:14:25.140Z,49.65
2022-09-15T11:17:55.197Z,50.28
2022-09-15T11:21:21.822Z,50.83
2022-09-15T11:24:05.096Z,51.34
2022-09-15T11:26:43.682Z,51.66
2022-09-15T11:29:40.121Z,52.53
2022-09-15T11:32:18.676Z,52.76
2022-09-15T11:35:29.455Z,52.72
2022-09-15T11:38:13.067Z,52.75
2022-09-15T11:40:50.673Z,52.79
2022-09-15T11:43:50.636Z,52.10
2022-09-15T11:46:34.986Z,52.34
2022-09-15T11:49:35.389Z,51.56
2022-09-15T11:52:20.362Z,51.51
2022-09-15T11:55:30.522Z,51.55
2022-09-15T11:58:22.246Z,52.15
2022-09-15T12:00:55.955Z,52.16
2022-09-15T12:03:36.479Z,52.87
2022-09-15T12:06:27.207Z,53.59
2022-09-15T12:09:00.936Z,53.75
2022-09-15T12:11:34.766Z,53.99
2022-09-15T12:14:10.658Z,54.23
2022-09-15T12:16:39.409Z,54.47
2022-09-15T12:19:22.092Z,54.69
2022-09-15T12:22:02.001Z,54.52
2022-09-15T12:24:44.121Z,54.24
2022-09-15T12:27:17.627Z,53.79
2022-09-15T12:29:55.930Z,53.21
2022-09-15T12:32:29.131Z,53.51
2022-09-15T12:35:10.152Z,53.49
2022-09-15T12:37:47.397Z,54.03
2022-09-15T12:40:33.646Z,54.26
2022-09-15T12:43:18.456Z,53.92
2022-09-15T12:46:00.193Z,54.22
2022-09-15T12:48:36.848Z,53.84
2022-09-15T12:51:12.371Z,53.93
2022-09-15T12:53:58.127Z,54.09
2022-09-15T12:56:30.136Z,53.64
2022-09-15T12:59:07.776Z,53.39
2022-09-15T13:01:50.550Z,52.77
2022-09-15T13:04:45.262Z,53.36
2022-09-15T13:07:16.556Z,51.64
2022-09-15T13:09:57.705Z,50.50
2022-09-15T13:12:41.387Z,51.10
2022-09-15T13:15:18.839Z,50.57
2022-09-15T13:17:47.876Z,47.61
2022-09-15T13:20:24.046Z,47.84
2022-09-15T13:22:56.583Z,47.27
2022-09-15T13:25:30.611Z,47.30
2022-09-15T13:28:02.562Z,47.69
2022-09-15T13:30:58.326Z,48.50
2022-09-15T13:40:27.646Z,48.83
2022-09-15T13:43:11.265Z,49.94
2022-09-15T13:45:58.217Z,47.75
2022-09-15T13:48:50.260Z,46.17
2022-09-15T13:51:31.631Z,45.84
2022-09-15T13:54:03.396Z,44.56
2022-09-15T13:56:41.712Z,45.01
2022-09-15T13:59:25.562Z,43.47
2022-09-15T14:01:54.861Z,40.73
2022-09-15T14:04:31.023Z,39.59
2022-09-15T14:07:01.875Z,40.34
2022-09-15T14:09:38.744Z,40.14
2022-09-15T14:12:15.232Z,40.10
2022-09-15T14:14:53.945Z,40.63
2022-09-15T14:17:25.346Z,40.58
2022-09-15T14:19:57.780Z,41.26
2022-09-15T14:22:29.172Z,40.91
2022-09-15T14:25:00.151Z,40.14
2022-09-15T14:27:33.949Z,38.49
2022-09-15T14:30:09.631Z,37.58
2022-09-15T14:32:45.943Z,37.96
2022-09-15T14:35:20.498Z,38.23
2022-09-15T14:37:55.300Z,39.36
2022-09-15T14:40:34.592Z,39.69
2022-09-15T14:43:04.500Z,40.34
2022-09-15T14:48:31.046Z,42.47
2022-09-15T14:51:12.338Z,42.29
2022-09-15T14:53:42.985Z,43.55
2022-09-15T14:56:23.785Z,44.46
2022-09-15T14:58:59.960Z,45.27
2022-09-15T15:02:03.658Z,45.93
2022-09-15T15:04:40.968Z,46.66
2022-09-15T15:07:25.421Z,47.37
2022-09-15T15:10:04.643Z,47.28
2022-09-15T15:12:53.961Z,47.50
2022-09-15T15:15:23.295Z,48.58
2022-09-15T15:17:54.933Z,48.48
2022-09-15T15:20:33.354Z,48.68
2022-09-15T15:23:17.945Z,49.13
2022-09-15T15:25:49.127Z,49.42
2022-09-15T15:28:32.240Z,49.32
2022-09-15T15:31:14.604Z,49.12
2022-09-15T15:33:56.800Z,49.52
2022-09-15T15:36:30.184Z,49.88
2022-09-15T15:39:08.000Z,49.53
2022-09-15T15:41:42.362Z,49.98
2022-09-15T15:44:16.884Z,50.59
2022-09-15T15:47:02.427Z,50.59
2022-09-15T15:49:32.805Z,50.76
2022-09-15T15:52:02.211Z,51.41
2022-09-15T15:54:33.741Z,51.02
2022-09-15T15:57:23.302Z,50.96
2022-09-15T15:59:58.532Z,50.71
2022-09-15T16:02:27.329Z,50.89
2022-09-15T16:04:55.852Z,50.59
2022-09-15T16:07:31.135Z,50.39
2022-09-15T16:10:02.153Z,50.29
2022-09-15T16:12:33.210Z,50.21
2022-09-15T16:15:19.522Z,50.09
2022-09-15T16:17:49.612Z,49.98
2022-09-15T16:20:23.574Z,49.83
2022-09-15T16:22:52.359Z,50.20
2022-09-15T16:25:42.373Z,50.39
2022-09-15T16:28:10.787Z,50.64
2022-09-15T16:30:39.559Z,50.79
2022-09-15T16:33:10.840Z,51.07
2022-09-15T16:36:08.519Z,51.12
2022-09-15T16:38:36.936Z,51.06
2022-09-15T16:41:25.867Z,51.15
2022-09-15T16:43:56.121Z,51.06
2022-09-15T16:46:24.482Z,50.85
2022-09-15T16:48:52.960Z,50.41
2022-09-15T16:51:29.943Z,50.56
2022-09-15T16:54:00.183Z,50.59
2022-09-15T16:56:28.834Z,50.89
2022-09-15T16:59:00.416Z,50.74
2022-09-15T17:01:29.292Z,51.08
2022-09-15T17:03:57.863Z,51.03
2022-09-15T17:06:26.233Z,51.08
2022-09-15T17:08:55.926Z,50.94
2022-09-15T17:11:25.666Z,51.11
2022-09-15T17:16:47.607Z,51.28
2022-09-15T17:19:16.031Z,51.90
2022-09-15T17:21:45.917Z,52.24
2022-09-15T17:24:14.259Z,52.37
2022-09-15T17:26:42.693Z,52.62
2022-09-15T17:29:11.075Z,53.17
2022-09-15T17:31:39.446Z,52.87
2022-09-15T17:34:14.457Z,53.88
2022-09-15T17:36:42.880Z,54.34
2022-09-15T17:39:11.149Z,54.77
2022-09-15T17:41:39.498Z,54.85
2022-09-15T17:44:17.090Z,55.77
2022-09-15T17:46:45.618Z,55.62
2022-09-15T17:49:14.033Z,56.06
2022-09-15T17:51:42.547Z,56.31
2022-09-15T17:54:11.481Z,56.48
2022-09-15T17:56:39.999Z,56.26
2022-09-15T17:59:11.849Z,56.77
2022-09-15T18:01:42.717Z,56.84
2022-09-15T18:04:11.675Z,57.35
2022-09-15T18:06:44.737Z,57.21
2022-09-15T18:09:15.055Z,57.47
2022-09-15T18:11:43.506Z,57.79
2022-09-15T18:14:11.935Z,57.88
2022-09-15T18:16:41.710Z,58.26
2022-09-15T18:19:10.518Z,58.47
2022-09-15T18:21:38.855Z,58.28
2022-09-15T18:24:09.478Z,59.14
2022-09-15T18:26:41.743Z,59.02
2022-09-15T18:29:10.165Z,59.61
2022-09-15T18:31:38.545Z,59.18
2022-09-15T18:34:07.018Z,59.15
2022-09-15T18:36:35.615Z,58.93
2022-09-15T18:39:05.325Z,59.59
2022-09-15T18:41:37.660Z,59.25
2022-09-15T18:44:06.228Z,59.26
2022-09-15T18:46:34.754Z,59.45
2022-09-15T18:49:03.413Z,59.32
2022-09-15T18:51:50.446Z,59.30
2022-09-15T18:54:19.654Z,59.62
2022-09-15T18:56:48.082Z,59.68
2022-09-15T18:59:17.789Z,60.00
2022-09-15T19:01:46.490Z,60.15
2022-09-15T19:04:15.087Z,59.78
2022-09-15T19:06:43.642Z,60.06
2022-09-15T19:09:12.091Z,60.10
2022-09-15T19:11:40.454Z,59.86
2022-09-15T19:14:08.875Z,60.19
2022-09-15T19:16:56.587Z,60.41
2022-09-15T19:19:25.901Z,60.16
2022-09-15T19:21:54.288Z,60.46
2022-09-15T19:24:22.783Z,60.69
2022-09-15T19:26:51.119Z,60.76
2022-09-15T19:29:19.426Z,61.02
2022-09-15T19:31:47.868Z,60.75
2022-09-15T19:34:16.252Z,61.57
2022-09-15T19:36:44.709Z,61.91
2022-09-15T19:39:15.031Z,61.88
2022-09-15T19:41:43.447Z,62.11
2022-09-15T19:44:11.897Z,62.27
2022-09-15T19:46:40.301Z,62.54
2022-09-15T19:49:08.625Z,62.98
2022-09-15T19:51:37.301Z,63.67
2022-09-15T19:54:06.090Z,63.30
2022-09-15T19:56:35.920Z,63.62
2022-09-15T19:59:06.586Z,64.09
2022-09-15T20:01:35.675Z,64.03
2022-09-15T20:04:04.254Z,63.85
2022-09-15T20:06:33.139Z,63.63
2022-09-15T20:09:04.726Z,63.63
2022-09-15T20:11:33.869Z,64.45
2022-09-15T20:14:03.019Z,64.65
2022-09-15T20:16:32.158Z,65.12
2022-09-15T20:19:03.953Z,64.84
2022-09-15T20:21:51.710Z,65.35
2022-09-15T20:24:23.933Z,65.76
2022-09-15T20:26:52.797Z,65.69
2022-09-15T20:29:21.669Z,66.06
2022-09-15T20:31:51.041Z,66.21
2022-09-15T20:34:19.799Z,65.59
2022-09-15T20:36:48.138Z,66.16
2022-09-15T20:39:18.942Z,66.03
2022-09-15T20:41:47.295Z,65.98
2022-09-15T20:44:15.996Z,65.86
2022-09-15T20:46:44.793Z,65.66
2022-09-15T20:49:13.752Z,65.94
2022-09-15T20:51:42.489Z,65.57
2022-09-15T20:54:11.112Z,65.45
2022-09-15T20:56:39.682Z,65.27
2022-09-15T20:59:10.750Z,65.52
2022-09-15T21:01:40.054Z,65.21
2022-09-15T21:04:10.900Z,65.62
2022-09-15T21:06:39.802Z,65.54
2022-09-15T21:09:08.854Z,65.45
2022-09-15T21:11:37.274Z,65.29
2022-09-15T21:14:05.609Z,64.68
2022-09-15T21:16:35.099Z,64.55
2022-09-15T21:19:04.425Z,64.35
2022-09-15T21:21:34.151Z,64.07
2022-09-15T21:24:08.328Z,64.11
2022-09-15T21:27:00.788Z,64.04
2022-09-15T21:29:30.151Z,64.02
2022-09-15T21:31:58.666Z,64.03
2022-09-15T21:34:28.152Z,64.18
2022-09-15T21:36:58.113Z,64.09
2022-09-15T21:39:26.563Z,63.86
2022-09-15T21:41:54.993Z,63.79
2022-09-15T21:44:23.410Z,63.79
2022-09-15T21:46:52.920Z,63.67
2022-09-15T21:49:21.344Z,63.57
2022-09-15T21:51:49.762Z,63.12
2022-09-15T21:54:18.213Z,62.80
2022-09-15T21:56:46.727Z,62.23
2022-09-15T21:59:14.996Z,61.85
2022-09-15T22:01:43.376Z,61.35
2022-09-15T22:04:11.879Z,61.06
2022-09-15T22:06:41.855Z,60.79
2022-09-15T22:09:15.088Z,60.57
2022-09-15T22:11:44.392Z,60.39
2022-09-15T22:14:14.453Z,60.32
2022-09-15T22:16:43.474Z,60.07
2022-09-15T22:19:13.388Z,60.00
2022-09-15T22:21:42.385Z,59.77
2022-09-15T22:24:13.690Z,59.86
2022-09-15T22:26:43.542Z,59.95
2022-09-15T22:29:12.553Z,59.88
2022-09-15T22:31:42.243Z,59.97
2022-09-15T22:34:10.993Z,60.11
2022-09-15T22:36:39.321Z,59.86
2022-09-15T22:39:07.962Z,60.00
2022-09-15T22:41:39.613Z,59.84
2022-09-15T22:44:18.083Z,60.08
2022-09-15T22:46:46.999Z,60.07
2022-09-15T22:49:15.572Z,60.22
2022-09-15T22:51:44.847Z,60.24
2022-09-15T22:54:13.247Z,60.44
2022-09-15T22:56:41.768Z,60.52
2022-09-15T22:59:10.257Z,60.80
2022-09-15T23:01:38.591Z,60.76
2022-09-15T23:04:07.037Z,60.96
2022-09-15T23:06:35.444Z,60.96
2022-09-15T23:09:10.261Z,61.00
2022-09-15T23:11:40.315Z,60.92
2022-09-15T23:14:17.855Z,61.15
2022-09-15T23:16:46.213Z,61.11
2022-09-15T23:19:15.152Z,61.11
2022-09-15T23:21:43.591Z,61.27
2022-09-15T23:24:12.685Z,61.29
2022-09-15T23:26:41.124Z,61.42
2022-09-15T23:29:10.277Z,61.29
2022-09-15T23:31:38.983Z,60.87
2022-09-15T23:34:07.420Z,60.72
2022-09-15T23:36:35.861Z,60.64
2022-09-15T23:39:04.434Z,60.72
2022-09-15T23:41:32.842Z,60.59
2022-09-15T23:44:01.239Z,60.37
2022-09-15T23:46:30.220Z,60.38
2022-09-15T23:48:58.725Z,60.61
2022-09-15T23:51:27.073Z,60.78
2022-09-15T23:53:55.480Z,60.75
2022-09-15T23:56:24.316Z,60.87
2022-09-15T23:58:52.684Z,60.78
